STQ686 EDDH-LEBB
Flight info
| Callsign | STQ686 |
|---|---|
| Flight time | 2h 5m |
| Altitude | 43000 |
| Route | WSN5C WSN N125 SILQI N872 PAM/N0485F410 N872 MEDIL DCT KOVIN DCT DUCRA UM728 RESMI UN857 DISAK DCT ARKIP DCT ARNAV DCT LMG DCT UVELI DCT OSMOB DCT VAVIX DCT BTZ DCT URUNA P181 SSN L176 CEGAM |
| Aircraft | C700/M-SBDGHM1RWXY/LB2 |
Departure
| Time | 2026-05-07 14:47 |
|---|---|
| Airport | Hamburg Helmut Schmidt Airport (EDDH) |
Arrival
| Time | 2026-05-07 16:53 |
|---|---|
| Airport | Bilbao Airport (LEBB) |
| Time | Latitude | Longitude | Altitude | Speed | Heading |
|---|---|---|---|---|---|
| 2026-05-07 14:20 | 53.62701 | 9.98711 | 41 ft | 0 kts | 244° |
| 2026-05-07 14:43 | 53.62699 | 9.98702 | 41 ft | 4 kts | 244° |
| 2026-05-07 14:43 | 53.62697 | 9.98662 | 41 ft | 4 kts | 308° |
| 2026-05-07 14:43 | 53.62739 | 9.98650 | 41 ft | 9 kts | 38° |
| 2026-05-07 14:43 | 53.62790 | 9.98757 | 41 ft | 13 kts | 50° |
| 2026-05-07 14:44 | 53.62853 | 9.98883 | 41 ft | 15 kts | 50° |
| 2026-05-07 14:44 | 53.62932 | 9.99043 | 41 ft | 19 kts | 50° |
| 2026-05-07 14:44 | 53.63017 | 9.99213 | 41 ft | 17 kts | 51° |
| 2026-05-07 14:44 | 53.63101 | 9.99300 | 41 ft | 13 kts | 17° |
| 2026-05-07 14:45 | 53.63142 | 9.99317 | 41 ft | 0 kts | 13° |
| 2026-05-07 14:46 | 53.63145 | 9.99318 | 41 ft | 3 kts | 13° |
| 2026-05-07 14:46 | 53.63203 | 9.99341 | 41 ft | 14 kts | 14° |
| 2026-05-07 14:47 | 53.63323 | 9.99352 | 41 ft | 20 kts | 335° |
| 2026-05-07 14:47 | 53.63636 | 9.99082 | 42 ft | 92 kts | 332° |
| 2026-05-07 14:47 | 53.64433 | 9.98387 | 190 ft | 156 kts | 337° |
| 2026-05-07 14:47 | 53.65477 | 9.97482 | 1064 ft | 184 kts | 336° |
| 2026-05-07 14:48 | 53.66740 | 9.96386 | 1897 ft | 223 kts | 335° |
| 2026-05-07 14:48 | 53.68210 | 9.95088 | 2932 ft | 254 kts | 330° |
| 2026-05-07 14:48 | 53.69545 | 9.92876 | 4088 ft | 284 kts | 310° |
| 2026-05-07 14:48 | 53.70516 | 9.89722 | 4977 ft | 333 kts | 290° |
| 2026-05-07 14:49 | 53.70699 | 9.85742 | 5310 ft | 333 kts | 263° |
| 2026-05-07 14:49 | 53.70112 | 9.82141 | 5674 ft | 308 kts | 251° |
| 2026-05-07 14:49 | 53.69388 | 9.78857 | 7322 ft | 285 kts | 250° |
| 2026-05-07 14:49 | 53.68752 | 9.75775 | 9291 ft | 281 kts | 252° |
| 2026-05-07 14:50 | 53.68145 | 9.72597 | 10736 ft | 292 kts | 252° |
| 2026-05-07 14:50 | 53.67491 | 9.69200 | 11864 ft | 312 kts | 252° |
| 2026-05-07 14:50 | 53.67035 | 9.66900 | 12988 ft | 313 kts | 251° |
| 2026-05-07 14:50 | 53.66332 | 9.63374 | 14467 ft | 322 kts | 251° |
| 2026-05-07 14:51 | 53.65610 | 9.59770 | 15899 ft | 327 kts | 250° |
| 2026-05-07 14:51 | 53.64562 | 9.56318 | 17273 ft | 334 kts | 237° |
| 2026-05-07 14:51 | 53.63194 | 9.53113 | 18497 ft | 342 kts | 234° |
| 2026-05-07 14:51 | 53.61326 | 9.48771 | 19826 ft | 348 kts | 235° |
| 2026-05-07 14:52 | 53.60370 | 9.46537 | 20505 ft | 349 kts | 235° |
| 2026-05-07 14:52 | 53.58941 | 9.43206 | 21453 ft | 353 kts | 234° |
| 2026-05-07 14:52 | 53.57493 | 9.39843 | 22397 ft | 356 kts | 234° |
| 2026-05-07 14:52 | 53.56025 | 9.36437 | 23254 ft | 362 kts | 234° |
| 2026-05-07 14:53 | 53.54536 | 9.32984 | 24054 ft | 367 kts | 234° |
| 2026-05-07 14:53 | 53.53028 | 9.29492 | 24805 ft | 371 kts | 234° |
| 2026-05-07 14:53 | 53.51502 | 9.25963 | 25545 ft | 375 kts | 234° |
| 2026-05-07 14:53 | 53.49954 | 9.22390 | 26240 ft | 380 kts | 234° |
| 2026-05-07 14:54 | 53.48408 | 9.18823 | 26916 ft | 385 kts | 234° |
| 2026-05-07 14:54 | 53.46825 | 9.15180 | 27693 ft | 388 kts | 234° |
| 2026-05-07 14:54 | 53.45227 | 9.11507 | 28377 ft | 393 kts | 234° |
| 2026-05-07 14:54 | 53.43600 | 9.07769 | 29044 ft | 399 kts | 234° |
| 2026-05-07 14:55 | 53.41956 | 9.04001 | 29733 ft | 403 kts | 234° |
| 2026-05-07 14:55 | 53.40294 | 9.00197 | 30399 ft | 406 kts | 234° |
| 2026-05-07 14:55 | 53.38606 | 8.96338 | 30825 ft | 414 kts | 234° |
| 2026-05-07 14:55 | 53.36894 | 8.92434 | 31354 ft | 418 kts | 234° |
| 2026-05-07 14:56 | 53.35259 | 8.88391 | 31840 ft | 422 kts | 241° |
| 2026-05-07 14:56 | 53.34048 | 8.83897 | 32291 ft | 426 kts | 251° |
| 2026-05-07 14:56 | 53.33151 | 8.79151 | 32691 ft | 430 kts | 253° |
| 2026-05-07 14:56 | 53.32254 | 8.74357 | 33139 ft | 433 kts | 253° |
| 2026-05-07 14:57 | 53.31347 | 8.69592 | 33840 ft | 428 kts | 252° |
| 2026-05-07 14:57 | 53.30444 | 8.64844 | 34300 ft | 429 kts | 252° |
| 2026-05-07 14:57 | 53.29542 | 8.60087 | 34755 ft | 429 kts | 252° |
| 2026-05-07 14:57 | 53.28639 | 8.55341 | 35313 ft | 427 kts | 252° |
| 2026-05-07 14:58 | 53.27736 | 8.50614 | 35829 ft | 427 kts | 252° |
| 2026-05-07 14:58 | 53.26828 | 8.45883 | 36274 ft | 429 kts | 252° |
| 2026-05-07 14:58 | 53.25920 | 8.41151 | 36827 ft | 427 kts | 252° |
| 2026-05-07 14:58 | 53.25012 | 8.36430 | 37308 ft | 427 kts | 251° |
| 2026-05-07 14:59 | 53.24101 | 8.31707 | 37746 ft | 428 kts | 251° |
| 2026-05-07 14:59 | 53.23207 | 8.27089 | 38179 ft | 428 kts | 251° |
| 2026-05-07 14:59 | 53.22266 | 8.22239 | 38649 ft | 428 kts | 251° |
| 2026-05-07 14:59 | 53.21348 | 8.17514 | 39020 ft | 428 kts | 251° |
| 2026-05-07 15:00 | 53.20454 | 8.12927 | 39351 ft | 427 kts | 251° |
| 2026-05-07 15:00 | 53.19536 | 8.08226 | 39690 ft | 427 kts | 251° |
| 2026-05-07 15:00 | 53.18614 | 8.03517 | 40019 ft | 426 kts | 251° |
| 2026-05-07 15:00 | 53.17692 | 7.98822 | 40326 ft | 426 kts | 251° |
| 2026-05-07 15:01 | 53.16769 | 7.94127 | 40636 ft | 426 kts | 251° |
| 2026-05-07 15:01 | 53.15844 | 7.89440 | 40935 ft | 426 kts | 251° |
| 2026-05-07 15:01 | 53.14918 | 7.84754 | 41234 ft | 425 kts | 251° |
| 2026-05-07 15:01 | 53.13991 | 7.80078 | 41529 ft | 425 kts | 251° |
| 2026-05-07 15:02 | 53.13062 | 7.75405 | 41812 ft | 425 kts | 251° |
| 2026-05-07 15:02 | 53.12134 | 7.70741 | 42092 ft | 424 kts | 251° |
| 2026-05-07 15:02 | 53.11202 | 7.66076 | 42367 ft | 424 kts | 251° |
| 2026-05-07 15:02 | 53.10272 | 7.61424 | 42653 ft | 424 kts | 251° |
| 2026-05-07 15:03 | 53.09340 | 7.56778 | 42910 ft | 423 kts | 251° |
| 2026-05-07 15:03 | 53.08405 | 7.52129 | 43071 ft | 425 kts | 250° |
| 2026-05-07 15:03 | 53.06496 | 7.42672 | 43073 ft | 436 kts | 250° |
| 2026-05-07 15:04 | 53.04536 | 7.33002 | 43077 ft | 447 kts | 250° |
| 2026-05-07 15:04 | 53.02527 | 7.23142 | 43075 ft | 452 kts | 250° |
| 2026-05-07 15:05 | 53.00509 | 7.13290 | 43073 ft | 448 kts | 250° |
| 2026-05-07 15:05 | 52.98500 | 7.03529 | 43072 ft | 445 kts | 250° |
| 2026-05-07 15:06 | 52.96498 | 6.93848 | 43068 ft | 443 kts | 250° |
| 2026-05-07 15:06 | 52.94490 | 6.84186 | 43067 ft | 444 kts | 250° |
| 2026-05-07 15:07 | 52.92463 | 6.74478 | 43067 ft | 446 kts | 250° |
| 2026-05-07 15:07 | 52.90421 | 6.64748 | 43071 ft | 448 kts | 250° |
| 2026-05-07 15:08 | 52.88362 | 6.54982 | 43067 ft | 450 kts | 250° |
| 2026-05-07 15:08 | 52.86293 | 6.45217 | 43068 ft | 449 kts | 250° |
| 2026-05-07 15:09 | 52.84223 | 6.35491 | 43066 ft | 448 kts | 250° |
| 2026-05-07 15:09 | 52.82164 | 6.25866 | 43056 ft | 446 kts | 250° |
| 2026-05-07 15:10 | 52.80089 | 6.16215 | 43067 ft | 445 kts | 249° |
| 2026-05-07 15:10 | 52.76999 | 6.07451 | 43072 ft | 442 kts | 229° |
| 2026-05-07 15:11 | 52.72427 | 6.00671 | 43087 ft | 445 kts | 217° |
| 2026-05-07 15:11 | 52.67509 | 5.94437 | 43079 ft | 447 kts | 219° |
| 2026-05-07 15:12 | 52.62616 | 5.88059 | 43077 ft | 450 kts | 218° |
| 2026-05-07 15:12 | 52.57665 | 5.81753 | 43066 ft | 449 kts | 218° |
| 2026-05-07 15:13 | 52.52754 | 5.75439 | 43066 ft | 447 kts | 218° |
| 2026-05-07 15:13 | 52.47850 | 5.69196 | 43063 ft | 445 kts | 218° |
| 2026-05-07 15:14 | 52.42966 | 5.62974 | 43058 ft | 444 kts | 218° |
| 2026-05-07 15:14 | 52.38082 | 5.56780 | 43065 ft | 445 kts | 218° |
| 2026-05-07 15:15 | 52.33178 | 5.50574 | 43067 ft | 446 kts | 218° |
| 2026-05-07 15:15 | 52.28260 | 5.44370 | 43068 ft | 447 kts | 218° |
| 2026-05-07 15:16 | 52.23332 | 5.38172 | 43076 ft | 448 kts | 218° |
| 2026-05-07 15:16 | 52.18394 | 5.31978 | 43076 ft | 448 kts | 218° |
| 2026-05-07 15:17 | 52.13438 | 5.25779 | 43071 ft | 449 kts | 218° |
| 2026-05-07 15:17 | 52.08569 | 5.19708 | 43073 ft | 450 kts | 218° |
| 2026-05-07 15:18 | 52.03658 | 5.13604 | 43808 ft | 432 kts | 218° |
| 2026-05-07 15:18 | 52.01305 | 5.10681 | 44602 ft | 423 kts | 218° |
| 2026-05-07 15:18 | 51.98965 | 5.07778 | 44712 ft | 424 kts | 218° |
| 2026-05-07 15:19 | 51.96654 | 5.04920 | 44930 ft | 424 kts | 218° |
| 2026-05-07 15:19 | 51.94308 | 5.02022 | 45071 ft | 425 kts | 218° |
| 2026-05-07 15:19 | 51.89682 | 4.96315 | 45069 ft | 433 kts | 218° |
| 2026-05-07 15:20 | 51.84839 | 4.90356 | 45081 ft | 441 kts | 218° |
| 2026-05-07 15:20 | 51.80068 | 4.84503 | 45084 ft | 449 kts | 218° |
| 2026-05-07 15:21 | 51.75314 | 4.78688 | 45080 ft | 452 kts | 217° |
| 2026-05-07 15:21 | 51.70173 | 4.72416 | 45067 ft | 449 kts | 217° |
| 2026-05-07 15:22 | 51.65263 | 4.66446 | 45051 ft | 445 kts | 217° |
| 2026-05-07 15:22 | 51.60332 | 4.60458 | 45051 ft | 443 kts | 217° |
| 2026-05-07 15:23 | 51.55638 | 4.54782 | 45049 ft | 446 kts | 217° |
| 2026-05-07 15:23 | 51.50674 | 4.48793 | 45050 ft | 448 kts | 217° |
| 2026-05-07 15:24 | 51.45757 | 4.42877 | 45046 ft | 450 kts | 217° |
| 2026-05-07 15:24 | 51.40712 | 4.36969 | 45041 ft | 451 kts | 212° |
| 2026-05-07 15:25 | 51.35183 | 4.32562 | 45053 ft | 449 kts | 206° |
| 2026-05-07 15:25 | 51.29640 | 4.28343 | 45075 ft | 447 kts | 206° |
| 2026-05-07 15:26 | 51.24244 | 4.24248 | 45067 ft | 446 kts | 206° |
| 2026-05-07 15:26 | 51.18559 | 4.19945 | 45064 ft | 444 kts | 206° |
| 2026-05-07 15:27 | 51.12798 | 4.16366 | 45072 ft | 446 kts | 200° |
| 2026-05-07 15:27 | 51.06914 | 4.13121 | 45079 ft | 448 kts | 200° |
| 2026-05-07 15:28 | 51.01155 | 4.09976 | 45079 ft | 451 kts | 200° |
| 2026-05-07 15:28 | 50.95313 | 4.06788 | 45079 ft | 452 kts | 200° |
| 2026-05-07 15:29 | 50.89370 | 4.03552 | 45077 ft | 451 kts | 200° |
| 2026-05-07 15:29 | 50.83809 | 4.00130 | 45074 ft | 448 kts | 203° |
| 2026-05-07 15:30 | 50.78039 | 3.96421 | 45063 ft | 446 kts | 203° |
| 2026-05-07 15:30 | 50.72373 | 3.92810 | 45064 ft | 445 kts | 203° |
| 2026-05-07 15:31 | 50.66839 | 3.89277 | 45065 ft | 446 kts | 203° |
| 2026-05-07 15:31 | 50.61141 | 3.85659 | 45061 ft | 447 kts | 203° |
| 2026-05-07 15:32 | 50.55391 | 3.81906 | 45067 ft | 447 kts | 205° |
| 2026-05-07 15:32 | 50.49727 | 3.78042 | 45070 ft | 448 kts | 204° |
| 2026-05-07 15:33 | 50.44028 | 3.74161 | 45069 ft | 449 kts | 204° |
| 2026-05-07 15:33 | 50.38250 | 3.70233 | 45071 ft | 450 kts | 204° |
| 2026-05-07 15:34 | 50.32530 | 3.66359 | 45062 ft | 450 kts | 204° |
| 2026-05-07 15:34 | 50.26795 | 3.62484 | 45058 ft | 449 kts | 204° |
| 2026-05-07 15:35 | 50.21072 | 3.58627 | 45054 ft | 447 kts | 204° |
| 2026-05-07 15:35 | 50.15498 | 3.54881 | 45051 ft | 446 kts | 204° |
| 2026-05-07 15:36 | 50.09811 | 3.51069 | 45055 ft | 444 kts | 204° |
| 2026-05-07 15:36 | 50.05098 | 3.47916 | 45050 ft | 444 kts | 204° |
| 2026-05-07 15:37 | 49.99409 | 3.44121 | 45046 ft | 446 kts | 204° |
| 2026-05-07 15:37 | 49.93762 | 3.40362 | 45049 ft | 447 kts | 204° |
| 2026-05-07 15:38 | 49.88029 | 3.36558 | 45049 ft | 449 kts | 204° |
| 2026-05-07 15:38 | 49.82271 | 3.32746 | 45049 ft | 450 kts | 204° |
| 2026-05-07 15:39 | 49.76522 | 3.28949 | 45043 ft | 448 kts | 204° |
| 2026-05-07 15:39 | 49.70793 | 3.25176 | 45040 ft | 446 kts | 204° |
| 2026-05-07 15:40 | 49.65119 | 3.21449 | 45045 ft | 444 kts | 204° |
| 2026-05-07 15:40 | 49.59419 | 3.17714 | 45042 ft | 442 kts | 204° |
| 2026-05-07 15:41 | 49.53753 | 3.14010 | 45040 ft | 442 kts | 204° |
| 2026-05-07 15:41 | 49.48138 | 3.10117 | 45035 ft | 443 kts | 211° |
| 2026-05-07 15:42 | 49.42988 | 3.04931 | 45050 ft | 444 kts | 214° |
| 2026-05-07 15:42 | 49.37819 | 2.99701 | 45049 ft | 445 kts | 214° |
| 2026-05-07 15:43 | 49.32644 | 2.94449 | 45047 ft | 447 kts | 214° |
| 2026-05-07 15:43 | 49.27506 | 2.89264 | 45047 ft | 446 kts | 214° |
| 2026-05-07 15:44 | 49.22359 | 2.84075 | 45037 ft | 444 kts | 214° |
| 2026-05-07 15:44 | 49.17207 | 2.78898 | 45033 ft | 442 kts | 214° |
| 2026-05-07 15:45 | 49.12073 | 2.73749 | 45037 ft | 441 kts | 214° |
| 2026-05-07 15:45 | 49.07067 | 2.68743 | 45039 ft | 440 kts | 214° |
| 2026-05-07 15:46 | 48.99368 | 2.61067 | 45049 ft | 441 kts | 214° |
| 2026-05-07 15:47 | 48.94216 | 2.55946 | 45050 ft | 442 kts | 214° |
| 2026-05-07 15:47 | 48.89188 | 2.50961 | 45053 ft | 443 kts | 214° |
| 2026-05-07 15:48 | 48.84014 | 2.45844 | 45055 ft | 444 kts | 214° |
| 2026-05-07 15:48 | 48.78831 | 2.40729 | 45057 ft | 445 kts | 214° |
| 2026-05-07 15:49 | 48.74083 | 2.36056 | 45051 ft | 445 kts | 214° |
| 2026-05-07 15:49 | 48.68862 | 2.30929 | 45053 ft | 445 kts | 214° |
| 2026-05-07 15:50 | 48.63860 | 2.26031 | 45045 ft | 446 kts | 214° |
| 2026-05-07 15:50 | 48.58798 | 2.21178 | 45018 ft | 446 kts | 210° |
| 2026-05-07 15:51 | 48.53444 | 2.18089 | 45017 ft | 448 kts | 195° |
| 2026-05-07 15:51 | 48.47398 | 2.16141 | 45031 ft | 446 kts | 194° |
| 2026-05-07 15:52 | 48.41335 | 2.14173 | 45017 ft | 445 kts | 194° |
| 2026-05-07 15:52 | 48.35279 | 2.12231 | 45017 ft | 445 kts | 194° |
| 2026-05-07 15:53 | 48.29167 | 2.10555 | 45015 ft | 450 kts | 186° |
| 2026-05-07 15:53 | 48.22891 | 2.11149 | 45032 ft | 456 kts | 174° |
| 2026-05-07 15:54 | 48.16583 | 2.12263 | 45012 ft | 454 kts | 182° |
| 2026-05-07 15:54 | 48.13451 | 2.11840 | 45023 ft | 451 kts | 193° |
| 2026-05-07 15:54 | 48.10472 | 2.10550 | 45030 ft | 447 kts | 203° |
| 2026-05-07 15:55 | 48.04990 | 2.06190 | 45028 ft | 445 kts | 214° |
| 2026-05-07 15:55 | 47.99718 | 2.01463 | 45022 ft | 444 kts | 210° |
| 2026-05-07 15:56 | 47.94333 | 1.97010 | 45016 ft | 441 kts | 212° |
| 2026-05-07 15:56 | 47.89041 | 1.92406 | 45012 ft | 440 kts | 211° |
| 2026-05-07 15:57 | 47.83724 | 1.87939 | 44995 ft | 438 kts | 211° |
| 2026-05-07 15:57 | 47.78434 | 1.83422 | 44985 ft | 439 kts | 211° |
| 2026-05-07 15:58 | 47.73117 | 1.78936 | 45004 ft | 441 kts | 211° |
| 2026-05-07 15:58 | 47.67788 | 1.74431 | 45009 ft | 443 kts | 211° |
| 2026-05-07 15:59 | 47.62422 | 1.69914 | 45010 ft | 444 kts | 211° |
| 2026-05-07 15:59 | 47.57051 | 1.65399 | 44993 ft | 443 kts | 211° |
| 2026-05-07 16:00 | 47.51699 | 1.60913 | 44993 ft | 440 kts | 211° |
| 2026-05-07 16:00 | 47.46377 | 1.56462 | 44988 ft | 438 kts | 211° |
| 2026-05-07 16:01 | 47.41112 | 1.52069 | 44990 ft | 437 kts | 211° |
| 2026-05-07 16:01 | 47.35813 | 1.47657 | 44992 ft | 437 kts | 211° |
| 2026-05-07 16:02 | 47.30504 | 1.43248 | 44995 ft | 439 kts | 211° |
| 2026-05-07 16:02 | 47.25178 | 1.38835 | 44995 ft | 440 kts | 211° |
| 2026-05-07 16:03 | 47.19841 | 1.34424 | 44993 ft | 440 kts | 211° |
| 2026-05-07 16:03 | 47.14491 | 1.30012 | 44988 ft | 441 kts | 211° |
| 2026-05-07 16:04 | 47.09173 | 1.25636 | 44984 ft | 441 kts | 211° |
| 2026-05-07 16:04 | 47.03811 | 1.21234 | 44992 ft | 442 kts | 211° |
| 2026-05-07 16:05 | 46.98440 | 1.16835 | 44998 ft | 442 kts | 211° |
| 2026-05-07 16:05 | 46.93059 | 1.12439 | 44982 ft | 442 kts | 211° |
| 2026-05-07 16:06 | 46.87688 | 1.08060 | 44979 ft | 440 kts | 211° |
| 2026-05-07 16:06 | 46.82344 | 1.03714 | 44973 ft | 439 kts | 211° |
| 2026-05-07 16:07 | 46.77020 | 0.99393 | 44973 ft | 437 kts | 211° |
| 2026-05-07 16:07 | 46.71712 | 0.95096 | 44973 ft | 436 kts | 211° |
| 2026-05-07 16:08 | 46.66403 | 0.90807 | 44976 ft | 437 kts | 211° |
| 2026-05-07 16:08 | 46.61061 | 0.86502 | 44976 ft | 440 kts | 211° |
| 2026-05-07 16:09 | 46.55695 | 0.82188 | 44969 ft | 441 kts | 211° |
| 2026-05-07 16:09 | 46.50306 | 0.77864 | 44983 ft | 444 kts | 211° |
| 2026-05-07 16:10 | 46.44942 | 0.73570 | 44980 ft | 443 kts | 211° |
| 2026-05-07 16:10 | 46.39529 | 0.69248 | 44976 ft | 440 kts | 211° |
| 2026-05-07 16:11 | 46.34210 | 0.65009 | 44964 ft | 438 kts | 211° |
| 2026-05-07 16:11 | 46.28887 | 0.60777 | 44963 ft | 436 kts | 211° |
| 2026-05-07 16:12 | 46.23565 | 0.56555 | 44961 ft | 437 kts | 211° |
| 2026-05-07 16:12 | 46.18217 | 0.52322 | 44962 ft | 439 kts | 211° |
| 2026-05-07 16:13 | 46.12842 | 0.48078 | 44964 ft | 441 kts | 211° |
| 2026-05-07 16:13 | 46.07450 | 0.43829 | 44964 ft | 442 kts | 211° |
| 2026-05-07 16:14 | 46.02058 | 0.39591 | 44968 ft | 441 kts | 211° |
| 2026-05-07 16:14 | 45.96689 | 0.35379 | 44952 ft | 439 kts | 211° |
| 2026-05-07 16:15 | 45.91337 | 0.31190 | 44954 ft | 437 kts | 211° |
| 2026-05-07 16:15 | 45.85997 | 0.27019 | 44954 ft | 436 kts | 211° |
| 2026-05-07 16:16 | 45.80662 | 0.22862 | 44957 ft | 437 kts | 211° |
| 2026-05-07 16:16 | 45.75297 | 0.18690 | 44958 ft | 439 kts | 211° |
| 2026-05-07 16:17 | 45.69908 | 0.14510 | 44947 ft | 441 kts | 210° |
| 2026-05-07 16:17 | 45.64493 | 0.10318 | 44948 ft | 443 kts | 210° |
| 2026-05-07 16:18 | 45.59071 | 0.06131 | 44950 ft | 442 kts | 210° |
| 2026-05-07 16:18 | 45.53707 | 0.01997 | 44942 ft | 440 kts | 210° |
| 2026-05-07 16:19 | 45.48327 | -0.02140 | 44945 ft | 438 kts | 210° |
| 2026-05-07 16:19 | 45.42968 | -0.06252 | 44942 ft | 437 kts | 210° |
| 2026-05-07 16:20 | 45.37616 | -0.10350 | 44936 ft | 437 kts | 210° |
| 2026-05-07 16:20 | 45.32249 | -0.14451 | 44946 ft | 439 kts | 210° |
| 2026-05-07 16:21 | 45.26856 | -0.18562 | 44947 ft | 441 kts | 210° |
| 2026-05-07 16:21 | 45.21443 | -0.22682 | 44947 ft | 442 kts | 210° |
| 2026-05-07 16:22 | 45.16924 | -0.26109 | 44936 ft | 443 kts | 210° |
| 2026-05-07 16:22 | 45.11499 | -0.30220 | 44934 ft | 441 kts | 210° |
| 2026-05-07 16:23 | 45.06099 | -0.34303 | 44931 ft | 439 kts | 210° |
| 2026-05-07 16:23 | 45.00723 | -0.38357 | 44932 ft | 437 kts | 210° |
| 2026-05-07 16:24 | 44.95371 | -0.42387 | 44933 ft | 435 kts | 210° |
| 2026-05-07 16:24 | 44.90028 | -0.46400 | 44932 ft | 436 kts | 210° |
| 2026-05-07 16:25 | 44.84659 | -0.50426 | 44937 ft | 438 kts | 210° |
| 2026-05-07 16:25 | 44.79261 | -0.54462 | 44945 ft | 440 kts | 210° |
| 2026-05-07 16:26 | 44.73839 | -0.58510 | 44947 ft | 442 kts | 210° |
| 2026-05-07 16:26 | 44.68453 | -0.62520 | 44945 ft | 441 kts | 210° |
| 2026-05-07 16:27 | 44.63043 | -0.66541 | 44934 ft | 439 kts | 210° |
| 2026-05-07 16:27 | 44.57657 | -0.70535 | 44931 ft | 437 kts | 210° |
| 2026-05-07 16:28 | 44.52287 | -0.74509 | 44922 ft | 435 kts | 210° |
| 2026-05-07 16:28 | 44.46929 | -0.78467 | 44923 ft | 436 kts | 210° |
| 2026-05-07 16:29 | 44.41547 | -0.82433 | 44801 ft | 440 kts | 210° |
| 2026-05-07 16:29 | 44.38799 | -0.84457 | 44201 ft | 450 kts | 210° |
| 2026-05-07 16:29 | 44.36017 | -0.86501 | 43598 ft | 452 kts | 210° |
| 2026-05-07 16:29 | 44.33241 | -0.88536 | 43002 ft | 449 kts | 210° |
| 2026-05-07 16:30 | 44.30492 | -0.90553 | 42417 ft | 444 kts | 210° |
| 2026-05-07 16:30 | 44.27774 | -0.92545 | 41830 ft | 438 kts | 210° |
| 2026-05-07 16:30 | 44.25088 | -0.94511 | 41256 ft | 433 kts | 209° |
| 2026-05-07 16:30 | 44.22437 | -0.96449 | 40686 ft | 427 kts | 209° |
| 2026-05-07 16:31 | 44.19820 | -0.98361 | 40136 ft | 423 kts | 209° |
| 2026-05-07 16:31 | 44.17225 | -1.00254 | 39580 ft | 421 kts | 209° |
| 2026-05-07 16:31 | 44.14629 | -1.02147 | 39023 ft | 420 kts | 209° |
| 2026-05-07 16:31 | 44.12040 | -1.04033 | 38443 ft | 421 kts | 209° |
| 2026-05-07 16:32 | 44.09440 | -1.05924 | 37854 ft | 421 kts | 209° |
| 2026-05-07 16:32 | 44.06844 | -1.07810 | 37295 ft | 422 kts | 208° |
| 2026-05-07 16:32 | 44.04236 | -1.09704 | 36736 ft | 424 kts | 208° |
| 2026-05-07 16:32 | 44.01620 | -1.11602 | 36170 ft | 425 kts | 208° |
| 2026-05-07 16:33 | 43.98994 | -1.13504 | 35616 ft | 426 kts | 208° |
| 2026-05-07 16:33 | 43.96363 | -1.15409 | 35059 ft | 426 kts | 208° |
| 2026-05-07 16:33 | 43.93771 | -1.17283 | 34502 ft | 424 kts | 208° |
| 2026-05-07 16:33 | 43.91159 | -1.19170 | 33938 ft | 422 kts | 207° |
| 2026-05-07 16:34 | 43.88565 | -1.21042 | 33346 ft | 418 kts | 207° |
| 2026-05-07 16:34 | 43.85992 | -1.22896 | 32793 ft | 417 kts | 207° |
| 2026-05-07 16:34 | 43.83406 | -1.24759 | 32243 ft | 421 kts | 207° |
| 2026-05-07 16:34 | 43.80785 | -1.26645 | 31682 ft | 427 kts | 207° |
| 2026-05-07 16:35 | 43.78127 | -1.28556 | 31114 ft | 433 kts | 207° |
| 2026-05-07 16:35 | 43.75442 | -1.30483 | 30541 ft | 435 kts | 207° |
| 2026-05-07 16:35 | 43.72755 | -1.32411 | 29960 ft | 436 kts | 207° |
| 2026-05-07 16:35 | 43.70073 | -1.34334 | 29351 ft | 432 kts | 207° |
| 2026-05-07 16:36 | 43.67418 | -1.36234 | 28788 ft | 426 kts | 207° |
| 2026-05-07 16:36 | 43.64801 | -1.38106 | 28223 ft | 421 kts | 207° |
| 2026-05-07 16:36 | 43.62213 | -1.39955 | 27661 ft | 417 kts | 207° |
| 2026-05-07 16:36 | 43.59650 | -1.41785 | 27123 ft | 413 kts | 207° |
| 2026-05-07 16:37 | 43.57105 | -1.43599 | 26586 ft | 411 kts | 207° |
| 2026-05-07 16:37 | 43.54573 | -1.45403 | 26052 ft | 409 kts | 207° |
| 2026-05-07 16:37 | 43.52051 | -1.47198 | 25512 ft | 407 kts | 207° |
| 2026-05-07 16:37 | 43.49573 | -1.49065 | 24974 ft | 406 kts | 212° |
| 2026-05-07 16:38 | 43.47317 | -1.51382 | 24443 ft | 403 kts | 220° |
| 2026-05-07 16:38 | 43.45341 | -1.54109 | 23909 ft | 401 kts | 228° |
| 2026-05-07 16:38 | 43.43679 | -1.57180 | 23368 ft | 400 kts | 235° |
| 2026-05-07 16:38 | 43.42188 | -1.60383 | 22764 ft | 396 kts | 238° |
| 2026-05-07 16:39 | 43.40938 | -1.63782 | 21935 ft | 399 kts | 244° |
| 2026-05-07 16:39 | 43.39869 | -1.67284 | 21124 ft | 395 kts | 246° |
| 2026-05-07 16:39 | 43.38787 | -1.70715 | 20362 ft | 387 kts | 243° |
| 2026-05-07 16:39 | 43.37599 | -1.74001 | 19608 ft | 381 kts | 242° |
| 2026-05-07 16:40 | 43.36419 | -1.77224 | 18879 ft | 375 kts | 243° |
| 2026-05-07 16:40 | 43.35311 | -1.80450 | 18160 ft | 371 kts | 244° |
| 2026-05-07 16:40 | 43.34232 | -1.83638 | 17351 ft | 367 kts | 244° |
| 2026-05-07 16:40 | 43.33135 | -1.86782 | 16566 ft | 363 kts | 243° |
| 2026-05-07 16:41 | 43.32043 | -1.89874 | 16060 ft | 356 kts | 243° |
| 2026-05-07 16:41 | 43.30976 | -1.92926 | 15591 ft | 354 kts | 244° |
| 2026-05-07 16:41 | 43.29910 | -1.95990 | 15127 ft | 358 kts | 244° |
| 2026-05-07 16:41 | 43.28839 | -1.99054 | 14652 ft | 360 kts | 244° |
| 2026-05-07 16:42 | 43.27743 | -2.02178 | 14167 ft | 359 kts | 244° |
| 2026-05-07 16:42 | 43.26664 | -2.05251 | 13701 ft | 356 kts | 244° |
| 2026-05-07 16:42 | 43.25598 | -2.08288 | 13202 ft | 351 kts | 244° |
| 2026-05-07 16:42 | 43.24545 | -2.11288 | 12750 ft | 345 kts | 243° |
| 2026-05-07 16:43 | 43.23524 | -2.14188 | 12313 ft | 329 kts | 243° |
| 2026-05-07 16:43 | 43.22557 | -2.16936 | 11898 ft | 312 kts | 243° |
| 2026-05-07 16:43 | 43.21633 | -2.19554 | 11510 ft | 298 kts | 243° |
| 2026-05-07 16:43 | 43.20760 | -2.22026 | 11139 ft | 287 kts | 243° |
| 2026-05-07 16:44 | 43.19903 | -2.24452 | 10778 ft | 280 kts | 243° |
| 2026-05-07 16:44 | 43.19056 | -2.26847 | 10424 ft | 279 kts | 242° |
| 2026-05-07 16:44 | 43.18203 | -2.29256 | 10051 ft | 283 kts | 242° |
| 2026-05-07 16:44 | 43.17342 | -2.31688 | 9655 ft | 283 kts | 242° |
| 2026-05-07 16:45 | 43.16488 | -2.34097 | 9274 ft | 280 kts | 242° |
| 2026-05-07 16:45 | 43.15643 | -2.36480 | 8909 ft | 277 kts | 242° |
| 2026-05-07 16:45 | 43.14800 | -2.38854 | 8550 ft | 277 kts | 242° |
| 2026-05-07 16:45 | 43.14053 | -2.41289 | 8174 ft | 281 kts | 251° |
| 2026-05-07 16:46 | 43.13762 | -2.43937 | 7812 ft | 282 kts | 265° |
| 2026-05-07 16:46 | 43.13951 | -2.46620 | 7436 ft | 285 kts | 280° |
| 2026-05-07 16:46 | 43.14608 | -2.49125 | 7058 ft | 274 kts | 294° |
| 2026-05-07 16:46 | 43.15461 | -2.51367 | 6745 ft | 258 kts | 295° |
| 2026-05-07 16:47 | 43.16262 | -2.53500 | 6453 ft | 248 kts | 296° |
| 2026-05-07 16:47 | 43.17082 | -2.55566 | 6142 ft | 247 kts | 296° |
| 2026-05-07 16:47 | 43.17870 | -2.57663 | 5845 ft | 248 kts | 294° |
| 2026-05-07 16:47 | 43.18628 | -2.59786 | 5563 ft | 250 kts | 294° |
| 2026-05-07 16:48 | 43.19428 | -2.61934 | 5209 ft | 253 kts | 295° |
| 2026-05-07 16:48 | 43.20216 | -2.64083 | 4826 ft | 251 kts | 294° |
| 2026-05-07 16:48 | 43.20995 | -2.66207 | 4445 ft | 248 kts | 295° |
| 2026-05-07 16:48 | 43.21763 | -2.68298 | 4068 ft | 242 kts | 295° |
| 2026-05-07 16:49 | 43.22488 | -2.70277 | 3700 ft | 219 kts | 295° |
| 2026-05-07 16:49 | 43.23138 | -2.72036 | 3381 ft | 197 kts | 294° |
| 2026-05-07 16:49 | 43.23727 | -2.73664 | 3097 ft | 186 kts | 295° |
| 2026-05-07 16:49 | 43.24310 | -2.75229 | 2824 ft | 184 kts | 294° |
| 2026-05-07 16:50 | 43.24856 | -2.76736 | 2771 ft | 155 kts | 295° |
| 2026-05-07 16:50 | 43.25346 | -2.78066 | 2486 ft | 161 kts | 295° |
| 2026-05-07 16:50 | 43.25840 | -2.79414 | 2128 ft | 155 kts | 296° |
| 2026-05-07 16:50 | 43.26313 | -2.80712 | 1824 ft | 153 kts | 296° |
| 2026-05-07 16:51 | 43.26786 | -2.82043 | 1667 ft | 156 kts | 296° |
| 2026-05-07 16:51 | 43.27254 | -2.83358 | 1412 ft | 148 kts | 299° |
| 2026-05-07 16:51 | 43.27737 | -2.84599 | 1262 ft | 146 kts | 299° |
| 2026-05-07 16:51 | 43.28186 | -2.85817 | 1018 ft | 138 kts | 298° |
| 2026-05-07 16:52 | 43.28615 | -2.86967 | 773 ft | 132 kts | 297° |
| 2026-05-07 16:52 | 43.29017 | -2.88062 | 565 ft | 126 kts | 296° |
| 2026-05-07 16:52 | 43.29398 | -2.89122 | 369 ft | 126 kts | 295° |
| 2026-05-07 16:52 | 43.29778 | -2.90161 | 159 ft | 113 kts | 295° |
| 2026-05-07 16:53 | 43.30089 | -2.91005 | 120 ft | 79 kts | 296° |
| 2026-05-07 16:53 | 43.30277 | -2.91518 | 120 ft | 48 kts | 296° |
| 2026-05-07 16:53 | 43.30407 | -2.91876 | 121 ft | 37 kts | 297° |
| 2026-05-07 16:53 | 43.30514 | -2.92167 | 119 ft | 31 kts | 296° |
| 2026-05-07 16:54 | 43.30601 | -2.92418 | 120 ft | 24 kts | 291° |
| 2026-05-07 16:54 | 43.30596 | -2.92573 | 123 ft | 10 kts | 240° |
| 2026-05-07 16:54 | 43.30531 | -2.92691 | 127 ft | 20 kts | 230° |
| 2026-05-07 16:54 | 43.30428 | -2.92847 | 125 ft | 23 kts | 229° |
| 2026-05-07 16:55 | 43.30328 | -2.92991 | 125 ft | 13 kts | 208° |
| 2026-05-07 16:55 | 43.30225 | -2.93018 | 126 ft | 11 kts | 186° |
| 2026-05-07 16:55 | 43.30164 | -2.93029 | 126 ft | 0 kts | 191° |
| 2026-05-07 16:56 | 43.30139 | -2.93059 | 126 ft | 9 kts | 259° |
| 2026-05-07 16:57 | 43.30148 | -2.93160 | 126 ft | 11 kts | 276° |
| 2026-05-07 16:57 | 43.30156 | -2.93262 | 126 ft | 10 kts | 275° |
| 2026-05-07 16:57 | 43.30161 | -2.93349 | 126 ft | 7 kts | 252° |
| 2026-05-07 16:57 | 43.30120 | -2.93356 | 124 ft | 6 kts | 187° |
| 2026-05-07 16:58 | 43.30107 | -2.93359 | 126 ft | 0 kts | 188° |